createdAt,value
2022-08-03T00:00:33.861Z,3.60
2022-08-03T00:03:01.607Z,3.83
2022-08-03T00:05:29.042Z,3.83
2022-08-03T00:07:56.319Z,3.90
2022-08-03T00:10:23.794Z,3.78
2022-08-03T00:12:53.354Z,3.90
2022-08-03T00:15:20.534Z,3.55
2022-08-03T00:17:53.418Z,3.72
2022-08-03T00:20:22.242Z,3.60
2022-08-03T00:22:50.050Z,3.25
2022-08-03T00:25:17.805Z,3.47
2022-08-03T00:27:45.969Z,3.10
2022-08-03T00:30:16.949Z,3.30
2022-08-03T00:32:45.272Z,3.30
2022-08-03T00:35:34.385Z,3.35
2022-08-03T00:38:01.779Z,3.97
2022-08-03T00:40:29.170Z,3.38
2022-08-03T00:43:05.873Z,3.38
2022-08-03T00:45:39.217Z,3.33
2022-08-03T00:48:19.531Z,3.67
2022-08-03T00:50:58.765Z,3.58
2022-08-03T00:53:31.853Z,3.72
2022-08-03T00:58:32.394Z,3.75
2022-08-03T01:01:02.336Z,3.42
2022-08-03T01:03:29.885Z,3.72
2022-08-03T01:06:16.977Z,3.28
2022-08-03T01:08:56.104Z,3.47
2022-08-03T01:12:00.755Z,3.03
2022-08-03T01:14:45.075Z,3.60
2022-08-03T01:17:18.779Z,3.55
2022-08-03T01:20:09.432Z,3.47
2022-08-03T01:22:50.091Z,3.28
2022-08-03T01:25:38.559Z,3.88
2022-08-03T01:28:05.906Z,3.33
2022-08-03T01:30:43.236Z,3.00
2022-08-03T01:33:19.993Z,3.33
2022-08-03T01:35:54.758Z,3.75
2022-08-03T01:38:32.331Z,3.20
2022-08-03T01:41:07.061Z,3.50
2022-08-03T01:44:27.891Z,3.10
2022-08-03T01:46:26.182Z,3.67
2022-08-03T01:48:55.307Z,3.22
2022-08-03T01:51:22.840Z,3.35
2022-08-03T01:53:54.809Z,3.30
2022-08-03T01:56:26.402Z,3.20
2022-08-03T01:58:55.429Z,3.30
2022-08-03T02:01:25.234Z,3.20
2022-08-03T02:04:16.526Z,3.10
2022-08-03T02:07:01.376Z,3.10
2022-08-03T02:09:31.348Z,3.38
2022-08-03T02:12:00.747Z,3.38
2022-08-03T02:14:29.096Z,3.22
2022-08-03T02:16:59.379Z,3.10
2022-08-03T02:19:30.330Z,3.10
2022-08-03T02:22:01.873Z,3.53
2022-08-03T02:24:31.397Z,3.53
2022-08-03T02:27:01.019Z,3.30
2022-08-03T02:29:40.050Z,3.13
2022-08-03T02:32:16.344Z,3.38
2022-08-03T02:34:47.472Z,3.38
2022-08-03T02:37:18.889Z,3.35
2022-08-03T02:39:53.285Z,3.60
2022-08-03T02:42:24.617Z,3.40
2022-08-03T02:44:55.329Z,3.45
2022-08-03T02:47:23.944Z,3.15
2022-08-03T02:49:55.793Z,3.15
2022-08-03T02:52:25.536Z,2.95
2022-08-03T02:54:56.709Z,3.53
2022-08-03T02:57:27.243Z,3.22
2022-08-03T03:00:00.183Z,3.67
2022-08-03T03:02:29.035Z,3.40
2022-08-03T03:05:50.559Z,3.42
2022-08-03T03:07:52.053Z,3.97
2022-08-03T03:10:24.808Z,3.63
2022-08-03T03:12:59.722Z,4.20
2022-08-03T03:15:28.301Z,3.80
2022-08-03T03:17:59.935Z,3.50
2022-08-03T03:20:30.115Z,3.97
2022-08-03T03:23:02.502Z,4.18
2022-08-03T03:25:32.404Z,3.85
2022-08-03T03:28:01.003Z,4.07
2022-08-03T03:30:33.166Z,3.90
2022-08-03T03:33:00.839Z,4.18
2022-08-03T03:35:29.213Z,4.03
2022-08-03T03:37:56.916Z,4.25
2022-08-03T03:40:24.963Z,3.47
2022-08-03T03:42:53.819Z,3.88
2022-08-03T03:45:21.932Z,4.07
2022-08-03T03:47:49.629Z,3.95
2022-08-03T03:50:22.608Z,4.00
2022-08-03T03:52:52.278Z,4.22
2022-08-03T03:55:22.294Z,3.42
2022-08-03T03:57:51.589Z,4.07
2022-08-03T04:00:21.667Z,3.58
2022-08-03T04:02:49.329Z,3.88
2022-08-03T04:05:35.485Z,3.70
2022-08-03T04:08:34.756Z,3.78
2022-08-03T04:11:14.878Z,3.70
2022-08-03T04:13:45.100Z,4.30
2022-08-03T04:16:15.290Z,3.55
2022-08-03T04:18:49.627Z,3.85
2022-08-03T04:21:21.165Z,3.95
2022-08-03T04:23:51.424Z,3.80
2022-08-03T04:26:21.641Z,4.30
2022-08-03T04:28:51.289Z,3.80
2022-08-03T04:31:21.999Z,4.38
2022-08-03T04:33:51.644Z,3.80
2022-08-03T04:36:29.977Z,4.15
2022-08-03T04:39:31.123Z,3.67
2022-08-03T04:42:08.297Z,3.55
2022-08-03T04:44:46.970Z,3.83
2022-08-03T04:47:14.339Z,3.58
2022-08-03T04:49:42.043Z,3.75
2022-08-03T04:52:11.849Z,3.50
2022-08-03T04:54:40.696Z,4.10
2022-08-03T04:57:08.259Z,3.67
2022-08-03T04:59:40.892Z,3.90
2022-08-03T05:02:08.354Z,3.40
2022-08-03T05:04:35.929Z,3.85
2022-08-03T05:07:12.326Z,3.83
2022-08-03T05:09:49.954Z,3.83
2022-08-03T05:12:18.363Z,3.60
2022-08-03T05:14:46.836Z,3.92
2022-08-03T05:17:16.274Z,3.78
2022-08-03T05:19:46.172Z,3.97
2022-08-03T05:22:14.137Z,3.85
2022-08-03T05:24:41.578Z,3.40
2022-08-03T05:27:17.499Z,3.65
2022-08-03T05:29:49.205Z,3.38
2022-08-03T05:32:17.679Z,3.45
2022-08-03T05:34:46.005Z,3.70
2022-08-03T05:37:13.219Z,3.70
2022-08-03T05:39:40.522Z,4.22
2022-08-03T05:42:07.937Z,4.07
2022-08-03T05:44:38.632Z,3.55
2022-08-03T05:47:06.298Z,3.53
2022-08-03T05:49:38.742Z,3.72
2022-08-03T05:52:13.098Z,3.58
2022-08-03T05:54:56.306Z,3.92
2022-08-03T05:57:27.441Z,3.80
2022-08-03T05:59:57.892Z,3.47
2022-08-03T06:02:27.157Z,3.80
2022-08-03T06:04:57.336Z,3.63
2022-08-03T06:07:24.561Z,3.80
2022-08-03T06:10:34.927Z,3.42
2022-08-03T06:12:41.356Z,3.88
2022-08-03T06:15:11.432Z,3.53
2022-08-03T06:17:46.650Z,4.25
2022-08-03T06:20:19.062Z,4.40
2022-08-03T06:22:51.024Z,4.57
2022-08-03T06:25:32.265Z,3.80
2022-08-03T06:28:01.015Z,4.22
2022-08-03T06:30:37.781Z,4.65
2022-08-03T06:33:04.914Z,4.57
2022-08-03T06:35:36.183Z,4.70
2022-08-03T06:38:04.499Z,4.65
2022-08-03T06:40:39.862Z,4.82
2022-08-03T06:43:12.340Z,4.80
2022-08-03T06:45:42.021Z,4.07
2022-08-03T06:48:12.939Z,4.63
2022-08-03T06:50:41.888Z,4.25
2022-08-03T06:53:19.668Z,4.10
2022-08-03T06:55:54.230Z,4.10
2022-08-03T06:58:24.651Z,5.15
2022-08-03T07:00:54.150Z,3.92
2022-08-03T07:03:27.321Z,3.85
2022-08-03T07:05:54.942Z,4.80
2022-08-03T07:08:33.351Z,4.47
2022-08-03T07:11:03.781Z,5.00
2022-08-03T07:13:36.450Z,4.63
2022-08-03T07:16:04.168Z,5.33
2022-08-03T07:18:36.085Z,4.90
2022-08-03T07:21:03.666Z,4.95
2022-08-03T07:23:31.066Z,4.97
2022-08-03T07:25:58.310Z,4.68
2022-08-03T07:28:28.373Z,4.57
2022-08-03T07:30:55.986Z,3.95
2022-08-03T07:33:23.297Z,4.65
2022-08-03T07:35:52.694Z,4.38
2022-08-03T07:38:21.243Z,4.15
2022-08-03T07:40:48.897Z,3.88
2022-08-03T07:43:17.549Z,4.53
2022-08-03T07:45:47.090Z,4.05
2022-08-03T07:48:14.574Z,4.10
2022-08-03T07:50:42.061Z,4.50
2022-08-03T07:53:09.458Z,4.03
2022-08-03T07:55:38.988Z,3.70
2022-08-03T07:58:12.365Z,3.92
2022-08-03T08:00:42.947Z,4.22
2022-08-03T08:03:11.326Z,3.42
2022-08-03T08:05:41.088Z,3.50
2022-08-03T08:08:08.636Z,3.97
2022-08-03T08:10:38.194Z,4.00
2022-08-03T08:13:06.470Z,4.18
2022-08-03T08:15:34.025Z,4.00
2022-08-03T08:18:02.452Z,4.55
2022-08-03T08:20:33.287Z,3.53
2022-08-03T08:23:09.656Z,3.80
2022-08-03T08:25:54.040Z,4.32
2022-08-03T08:28:32.765Z,3.60
2022-08-03T08:31:01.994Z,3.60
2022-08-03T08:34:00.974Z,4.15
2022-08-03T08:36:19.627Z,3.72
2022-08-03T08:38:47.114Z,8.05
2022-08-03T08:41:15.208Z,3.53
2022-08-03T08:43:43.294Z,3.25
2022-08-03T08:46:13.126Z,3.70
2022-08-03T08:48:54.139Z,3.30
2022-08-03T08:51:54.536Z,3.58
2022-08-03T08:54:20.909Z,3.40
2022-08-03T08:56:54.664Z,3.90
2022-08-03T08:59:22.442Z,3.72
2022-08-03T09:01:49.804Z,3.50
2022-08-03T09:04:17.465Z,3.10
2022-08-03T09:06:53.892Z,4.30
2022-08-03T09:10:10.998Z,3.10
2022-08-03T09:12:40.930Z,3.38
2022-08-03T09:15:36.075Z,3.63
2022-08-03T09:18:06.613Z,3.50
2022-08-03T09:20:36.728Z,4.20
2022-08-03T09:23:59.108Z,3.58
2022-08-03T09:26:01.656Z,4.45
2022-08-03T09:28:59.800Z,3.88
2022-08-03T09:34:11.291Z,3.70
2022-08-03T09:36:54.052Z,3.60
2022-08-03T09:39:41.900Z,3.90
2022-08-03T09:42:15.054Z,3.90
2022-08-03T09:44:45.297Z,3.40
2022-08-03T09:47:28.746Z,3.55
2022-08-03T09:50:02.062Z,3.30
2022-08-03T09:52:52.304Z,3.30
2022-08-03T09:56:33.263Z,3.45
2022-08-03T09:58:14.254Z,3.63
2022-08-03T10:00:59.456Z,3.08
2022-08-03T10:03:35.094Z,2.92
2022-08-03T10:06:19.602Z,4.45
2022-08-03T10:09:09.974Z,3.25
2022-08-03T10:11:42.013Z,3.00
2022-08-03T10:14:19.190Z,2.63
2022-08-03T10:16:49.337Z,3.25
2022-08-03T10:19:17.484Z,2.90
2022-08-03T10:21:57.029Z,3.30
2022-08-03T10:24:28.197Z,3.60
2022-08-03T10:27:13.905Z,3.28
2022-08-03T10:29:45.842Z,3.63
2022-08-03T10:32:21.458Z,3.83
2022-08-03T10:34:50.998Z,3.80
2022-08-03T10:37:32.378Z,7.05
2022-08-03T10:40:01.015Z,8.85
2022-08-03T10:42:34.764Z,9.38
2022-08-03T10:45:13.340Z,9.75
2022-08-03T10:47:41.168Z,10.23
2022-08-03T10:50:12.259Z,9.50
2022-08-03T10:52:59.051Z,12.02
2022-08-03T10:55:55.530Z,10.48
2022-08-03T10:58:38.180Z,10.20
2022-08-03T11:01:59.557Z,10.40
2022-08-03T11:04:32.555Z,10.75
2022-08-03T11:07:23.953Z,10.48
2022-08-03T11:09:52.858Z,10.20
2022-08-03T11:12:34.574Z,9.48
2022-08-03T11:15:08.569Z,10.75
2022-08-03T11:18:11.243Z,9.85
2022-08-03T11:20:52.415Z,9.68
2022-08-03T11:24:04.514Z,8.80
2022-08-03T11:26:29.427Z,8.68
2022-08-03T11:29:30.427Z,8.32
2022-08-03T11:31:58.524Z,7.90
2022-08-03T11:34:25.981Z,8.30
2022-08-03T11:37:20.626Z,7.25
2022-08-03T11:39:50.990Z,7.32
2022-08-03T11:42:27.414Z,7.65
2022-08-03T11:44:56.784Z,7.43
2022-08-03T11:47:32.246Z,7.30
2022-08-03T11:50:02.081Z,7.60
2022-08-03T11:52:41.224Z,7.28
2022-08-03T11:55:12.922Z,8.02
2022-08-03T11:59:15.142Z,8.27
2022-08-03T12:00:33.472Z,7.00
2022-08-03T12:03:04.026Z,7.35
2022-08-03T12:05:51.748Z,7.78
2022-08-03T12:08:33.893Z,6.72
2022-08-03T12:11:05.782Z,6.45
2022-08-03T12:14:32.972Z,6.03
2022-08-03T12:16:32.163Z,7.10
2022-08-03T12:19:01.956Z,6.88
2022-08-03T12:21:32.032Z,6.88
2022-08-03T12:24:04.723Z,6.90
2022-08-03T12:26:58.120Z,6.15
2022-08-03T12:29:29.127Z,6.95
2022-08-03T12:31:58.607Z,6.40
2022-08-03T12:34:47.465Z,6.38
2022-08-03T12:37:22.707Z,6.32
2022-08-03T12:40:03.577Z,6.07
2022-08-03T12:42:39.375Z,5.63
2022-08-03T12:45:24.468Z,6.53
2022-08-03T12:47:59.069Z,6.10
2022-08-03T12:50:27.440Z,5.83
2022-08-03T12:52:56.000Z,5.65
2022-08-03T12:55:25.322Z,6.05
2022-08-03T12:57:52.525Z,4.95
2022-08-03T13:00:29.408Z,6.22
2022-08-03T13:03:27.404Z,5.85
2022-08-03T13:05:52.100Z,5.00
2022-08-03T13:08:25.043Z,5.55
2022-08-03T13:10:52.281Z,5.63
2022-08-03T13:13:38.086Z,5.38
2022-08-03T13:16:05.542Z,5.80
2022-08-03T13:18:35.202Z,5.03
2022-08-03T13:21:02.691Z,5.35
2022-08-03T13:23:35.295Z,5.97
2022-08-03T13:26:04.689Z,5.30
2022-08-03T13:28:34.313Z,5.82
2022-08-03T13:31:04.480Z,5.18
2022-08-03T13:33:36.884Z,5.47
2022-08-03T13:36:04.136Z,4.60
2022-08-03T13:38:31.794Z,5.75
2022-08-03T13:41:01.944Z,5.20
2022-08-03T13:43:34.866Z,4.72
2022-08-03T13:46:05.004Z,4.80
2022-08-03T13:48:37.136Z,5.32
2022-08-03T13:51:21.964Z,5.82
2022-08-03T13:53:54.204Z,5.32
2022-08-03T13:56:21.756Z,5.78
2022-08-03T13:58:51.211Z,5.22
2022-08-03T14:01:34.310Z,5.88
2022-08-03T14:04:05.990Z,5.03
2022-08-03T14:06:45.191Z,4.88
2022-08-03T14:09:14.790Z,4.50
2022-08-03T14:12:07.829Z,5.10
2022-08-03T14:14:37.190Z,4.75
2022-08-03T14:17:06.666Z,5.00
2022-08-03T14:19:52.527Z,4.43
2022-08-03T14:22:25.817Z,4.65
2022-08-03T14:24:56.323Z,5.07
2022-08-03T14:27:23.760Z,5.05
2022-08-03T14:29:51.005Z,4.75
2022-08-03T14:32:18.428Z,4.72
2022-08-03T14:34:45.768Z,4.50
2022-08-03T14:37:13.015Z,4.63
2022-08-03T14:42:28.717Z,5.32
2022-08-03T14:45:00.724Z,4.80
2022-08-03T14:47:30.814Z,4.47
2022-08-03T14:50:32.769Z,5.18
2022-08-03T14:52:47.943Z,4.60
2022-08-03T14:55:17.305Z,4.60
2022-08-03T14:57:45.574Z,4.35
2022-08-03T15:00:13.494Z,4.20
2022-08-03T15:02:41.218Z,4.20
2022-08-03T15:05:10.752Z,4.18
2022-08-03T15:07:40.083Z,4.03
2022-08-03T15:10:10.072Z,3.50
2022-08-03T15:12:39.466Z,4.40
2022-08-03T15:15:07.638Z,3.92
2022-08-03T15:17:36.183Z,3.95
2022-08-03T15:20:26.594Z,4.32
2022-08-03T15:22:55.513Z,3.80
2022-08-03T15:26:32.120Z,4.32
2022-08-03T15:28:12.980Z,3.58
2022-08-03T15:30:40.224Z,4.05
2022-08-03T15:33:08.385Z,4.20
2022-08-03T15:35:39.077Z,4.05
2022-08-03T15:38:09.484Z,3.92
2022-08-03T15:40:37.847Z,4.25
2022-08-03T15:43:07.474Z,4.00
2022-08-03T15:45:40.496Z,3.70
2022-08-03T15:48:14.055Z,3.70
2022-08-03T15:50:41.262Z,4.10
2022-08-03T15:53:11.031Z,4.03
2022-08-03T15:55:41.171Z,3.47
2022-08-03T15:59:04.203Z,4.63
2022-08-03T16:01:06.731Z,4.20
2022-08-03T16:03:35.832Z,4.90
2022-08-03T16:06:07.088Z,4.30
2022-08-03T16:08:34.784Z,4.88
2022-08-03T16:11:10.682Z,4.80
2022-08-03T16:14:13.154Z,4.00
2022-08-03T16:16:34.683Z,4.05
2022-08-03T16:19:05.423Z,4.53
2022-08-03T16:21:33.598Z,4.03
2022-08-03T16:24:24.257Z,4.60
2022-08-03T16:26:56.259Z,4.35
2022-08-03T16:29:26.166Z,3.90
2022-08-03T16:31:54.582Z,4.00
2022-08-03T16:34:24.310Z,3.95
2022-08-03T16:36:54.741Z,4.30
2022-08-03T16:39:22.220Z,4.57
2022-08-03T16:41:53.532Z,4.07
2022-08-03T16:44:31.289Z,3.90
2022-08-03T16:47:02.490Z,3.70
2022-08-03T16:49:54.129Z,4.00
2022-08-03T16:52:53.139Z,3.35
2022-08-03T16:55:54.446Z,3.70
2022-08-03T16:58:41.673Z,3.28
2022-08-03T17:01:22.507Z,3.63
2022-08-03T17:04:03.123Z,3.80
2022-08-03T17:06:38.298Z,3.67
2022-08-03T17:09:21.521Z,3.67
2022-08-03T17:11:51.005Z,3.55
2022-08-03T17:14:31.269Z,4.00
2022-08-03T17:17:06.775Z,3.33
2022-08-03T17:19:39.433Z,3.58
2022-08-03T17:22:18.909Z,3.85
2022-08-03T17:24:57.459Z,3.75
2022-08-03T17:28:48.897Z,3.45
2022-08-03T17:30:18.813Z,3.75
2022-08-03T17:32:56.743Z,3.30
2022-08-03T17:35:36.471Z,3.10
2022-08-03T17:38:18.594Z,3.50
2022-08-03T17:40:52.145Z,2.70
2022-08-03T17:44:14.168Z,2.90
2022-08-03T17:46:11.080Z,2.80
2022-08-03T17:48:42.809Z,2.80
2022-08-03T17:51:29.892Z,2.75
2022-08-03T17:54:03.051Z,3.45
2022-08-03T17:56:42.689Z,3.35
2022-08-03T17:59:50.689Z,2.58
2022-08-03T18:06:11.163Z,2.65
2022-08-03T18:08:27.748Z,2.83
2022-08-03T18:11:18.838Z,2.60
2022-08-03T18:17:04.842Z,2.60
2022-08-03T18:20:01.748Z,2.85
2022-08-03T18:22:30.610Z,2.78
2022-08-03T18:25:00.246Z,2.83
2022-08-03T18:27:42.591Z,2.28
2022-08-03T18:30:15.606Z,2.83
2022-08-03T18:33:00.863Z,3.05
2022-08-03T18:38:19.856Z,2.42
2022-08-03T18:40:51.477Z,2.50
2022-08-03T18:43:20.993Z,2.72
2022-08-03T18:46:36.724Z,2.60
2022-08-03T18:49:21.217Z,2.40
2022-08-03T18:51:58.820Z,2.50
2022-08-03T18:55:19.851Z,2.47
2022-08-03T18:58:17.914Z,2.38
2022-08-03T19:00:59.195Z,2.33
2022-08-03T19:03:41.550Z,2.65
2022-08-03T19:06:23.189Z,3.00
2022-08-03T19:09:00.944Z,2.75
2022-08-03T19:12:14.476Z,2.80
2022-08-03T19:14:34.725Z,2.60
2022-08-03T19:17:08.605Z,2.50
2022-08-03T19:19:43.659Z,2.33
2022-08-03T19:25:07.293Z,2.47
2022-08-03T19:27:40.167Z,2.70
2022-08-03T19:30:32.379Z,2.45
2022-08-03T19:33:11.019Z,2.50
2022-08-03T19:35:55.182Z,2.28
2022-08-03T19:38:28.916Z,2.28
2022-08-03T19:41:00.721Z,2.13
2022-08-03T19:43:58.229Z,2.10
2022-08-03T19:46:32.215Z,2.28
2022-08-03T19:49:14.579Z,2.20
2022-08-03T19:51:58.995Z,2.53
2022-08-03T19:54:53.416Z,2.40
2022-08-03T19:57:33.613Z,2.08
2022-08-03T20:00:03.606Z,2.50
2022-08-03T20:02:33.458Z,2.40
2022-08-03T20:05:14.975Z,2.20
2022-08-03T20:07:47.864Z,2.53
2022-08-03T20:10:17.693Z,2.55
2022-08-03T20:12:47.047Z,2.10
2022-08-03T20:15:18.386Z,2.53
2022-08-03T20:17:59.273Z,2.30
2022-08-03T20:20:35.895Z,2.08
2022-08-03T20:23:14.963Z,2.33
2022-08-03T20:25:58.329Z,2.20
2022-08-03T20:28:35.502Z,2.43
2022-08-03T20:31:22.755Z,2.53
2022-08-03T20:33:54.695Z,1.98
2022-08-03T20:36:22.770Z,2.70
2022-08-03T20:38:57.660Z,2.05
2022-08-03T20:41:25.957Z,2.10
2022-08-03T20:43:53.157Z,2.28
2022-08-03T20:46:31.133Z,2.40
2022-08-03T20:49:05.245Z,2.50
2022-08-03T20:51:49.927Z,2.20
2022-08-03T20:54:30.547Z,2.33
2022-08-03T20:57:03.681Z,2.30
2022-08-03T20:59:47.004Z,2.30
2022-08-03T21:02:30.095Z,2.38
2022-08-03T21:05:02.990Z,2.38
2022-08-03T21:08:05.549Z,2.10
2022-08-03T21:10:33.064Z,2.30
2022-08-03T21:12:57.247Z,2.45
2022-08-03T21:12:58.523Z,2.55
2022-08-03T21:13:08.789Z,2.63
2022-08-03T21:13:18.914Z,1.83
2022-08-03T21:16:02.981Z,2.35
2022-08-03T21:18:49.686Z,2.20
2022-08-03T21:21:20.593Z,2.22
2022-08-03T21:23:53.228Z,2.28
2022-08-03T21:26:25.426Z,2.35
2022-08-03T21:28:56.803Z,2.35
2022-08-03T21:31:26.620Z,2.00
2022-08-03T21:34:03.077Z,2.40
2022-08-03T21:36:33.654Z,1.98
2022-08-03T21:39:04.922Z,2.10
2022-08-03T21:41:32.969Z,2.10
2022-08-03T21:44:01.188Z,2.35
2022-08-03T21:46:35.474Z,2.25
2022-08-03T21:50:05.120Z,2.25
2022-08-03T21:52:05.696Z,1.90
2022-08-03T21:54:41.475Z,2.13
2022-08-03T21:57:27.399Z,2.25
2022-08-03T22:00:00.650Z,2.08
2022-08-03T22:04:58.570Z,2.20
2022-08-03T22:07:28.312Z,2.15
2022-08-03T22:09:59.289Z,2.00
2022-08-03T22:12:29.627Z,2.20
2022-08-03T22:15:00.208Z,2.13
2022-08-03T22:17:55.709Z,2.10
2022-08-03T22:20:20.802Z,2.47
2022-08-03T22:22:55.291Z,2.20
2022-08-03T22:25:32.680Z,1.90
2022-08-03T22:28:05.650Z,2.33
2022-08-03T22:33:03.902Z,2.03
2022-08-03T22:35:47.953Z,2.15
2022-08-03T22:38:17.617Z,2.17
2022-08-03T22:40:52.695Z,2.45
2022-08-03T22:43:25.983Z,2.13
2022-08-03T22:46:09.743Z,2.30
2022-08-03T22:48:41.609Z,2.05
2022-08-03T22:51:11.406Z,1.95
2022-08-03T22:53:40.022Z,1.90
2022-08-03T22:56:08.207Z,2.20
2022-08-03T22:58:35.602Z,2.30
2022-08-03T23:01:11.182Z,2.45
2022-08-03T23:04:00.254Z,2.10
2022-08-03T23:06:38.690Z,2.35
2022-08-03T23:09:08.490Z,1.92
2022-08-03T23:11:37.939Z,2.20
2022-08-03T23:14:16.064Z,2.30
2022-08-03T23:16:49.271Z,2.10
2022-08-03T23:19:25.631Z,1.90
2022-08-03T23:22:02.777Z,2.50
2022-08-03T23:24:36.138Z,2.40
2022-08-03T23:27:08.351Z,2.50
2022-08-03T23:29:42.168Z,1.90
2022-08-03T23:32:10.397Z,2.33
2022-08-03T23:35:02.067Z,2.33
2022-08-03T23:37:33.282Z,2.08
2022-08-03T23:40:03.893Z,2.78
2022-08-03T23:42:31.311Z,2.65
2022-08-03T23:45:06.329Z,2.60
